メインページ
METAR-TAF:

METAR-TAF

空港 :

Vineyard Haven, マサチューセッツ州, アメリカ合衆国

緯度: 41-23-32N, 経度: 070-37-00W, 海抜: 20m

現時点の気象観測

当レポートは12分前の05:53(UTC)に作成
北/北東の風 18kt、最大29ktの突風を伴う
気温 6°C
湿度 93%
気圧 1009 hPa
視程: 4.8km
高度600ftの千切れ雲あり
高度1100ftの曇り
小雨, 靄

METAR: KMVY 040553Z AUTO 03018G29KT 3SM -RA BR BKN006 OVC011 06/05 A2980 RMK AO2 PK WND 03029/0551 SLP092 P0001 60004 T00610050 10067 20061 53016

時間: 02:05 (06:05 UTC)


TAF: 見つかりません

4,000以上の空港の気象観測と天気予報(METAR報とTAF報)

利用可能な観測所は地図上に黄色い丸と赤い丸で示す。

丸の上にカーソルを重ねると観測所名を参照できる。

次にクリックすると気象観測と天気予報を参照できる。

マップの切り替え:黒色「×」印の緑ボタンをクリックして拡大、「-」印の緑ボタンをクリックして縮小、緑色の三角印をクリックして隣りの地図に切り替え


METAR-TAF: